sensor_id;sensor_type;location;lat;lon;timestamp;P1;durP1;ratioP1;P2;durP2;ratioP2
52342;SDS011;38277;51.972;4.624;2022-09-21T00:03:28;2.9;;;1.4;;
52342;SDS011;38277;51.972;4.624;2022-09-21T00:08:09;6.0;;;2.1;;
52342;SDS011;38277;51.972;4.624;2022-09-21T00:12:32;3.5;;;1.6;;
52342;SDS011;38277;51.972;4.624;2022-09-21T00:17:01;3.3;;;1.8;;
52342;SDS011;38277;51.972;4.624;2022-09-21T00:21:43;4.3;;;1.9;;
52342;SDS011;38277;51.972;4.624;2022-09-21T00:26:04;3.3;;;1.6;;
52342;SDS011;38277;51.972;4.624;2022-09-21T00:30:26;4.1;;;1.7;;
52342;SDS011;38277;51.972;4.624;2022-09-21T00:34:52;2.7;;;1.8;;
52342;SDS011;38277;51.972;4.624;2022-09-21T00:39:32;3.5;;;1.7;;
52342;SDS011;38277;51.972;4.624;2022-09-21T00:44:24;2.9;;;1.3;;
52342;SDS011;38277;51.972;4.624;2022-09-21T00:48:39;2.5;;;1.6;;
52342;SDS011;38277;51.972;4.624;2022-09-21T00:53:06;3.3;;;1.7;;
52342;SDS011;38277;51.972;4.624;2022-09-21T01:01:49;3.6;;;1.6;;
52342;SDS011;38277;51.972;4.624;2022-09-21T01:06:37;3.5;;;1.5;;
52342;SDS011;38277;51.972;4.624;2022-09-21T01:11:22;2.7;;;1.4;;
52342;SDS011;38277;51.972;4.624;2022-09-21T01:21:29;3.0;;;1.7;;
52342;SDS011;38277;51.972;4.624;2022-09-21T01:26:05;3.2;;;1.7;;
52342;SDS011;38277;51.972;4.624;2022-09-21T01:30:14;2.1;;;1.4;;
52342;SDS011;38277;51.972;4.624;2022-09-21T01:38:07;5.2;;;1.6;;
52342;SDS011;38277;51.972;4.624;2022-09-21T01:42:42;3.8;;;1.6;;
52342;SDS011;38277;51.972;4.624;2022-09-21T01:46:57;4.3;;;2.0;;
52342;SDS011;38277;51.972;4.624;2022-09-21T01:51:38;2.9;;;1.7;;
52342;SDS011;38277;51.972;4.624;2022-09-21T01:56:09;4.0;;;1.8;;
52342;SDS011;38277;51.972;4.624;2022-09-21T02:00:41;4.2;;;1.7;;
52342;SDS011;38277;51.972;4.624;2022-09-21T02:04:46;2.6;;;1.5;;
52342;SDS011;38277;51.972;4.624;2022-09-21T02:09:18;3.9;;;2.0;;
52342;SDS011;38277;51.972;4.624;2022-09-21T02:13:57;3.6;;;1.6;;
52342;SDS011;38277;51.972;4.624;2022-09-21T02:19:10;3.3;;;1.7;;
52342;SDS011;38277;51.972;4.624;2022-09-21T02:22:58;2.0;;;1.4;;
52342;SDS011;38277;51.972;4.624;2022-09-21T02:27:42;4.2;;;1.8;;
52342;SDS011;38277;51.972;4.624;2022-09-21T02:32:11;3.4;;;1.8;;
52342;SDS011;38277;51.972;4.624;2022-09-21T02:36:50;2.8;;;1.9;;
52342;SDS011;38277;51.972;4.624;2022-09-21T02:41:00;2.6;;;1.6;;
52342;SDS011;38277;51.972;4.624;2022-09-21T02:50:14;3.1;;;1.4;;
52342;SDS011;38277;51.972;4.624;2022-09-21T02:54:45;3.5;;;1.8;;
52342;SDS011;38277;51.972;4.624;2022-09-21T02:58:56;3.9;;;2.1;;
52342;SDS011;38277;51.972;4.624;2022-09-21T03:07:53;5.8;;;1.9;;
52342;SDS011;38277;51.972;4.624;2022-09-21T03:12:19;6.2;;;3.1;;
52342;SDS011;38277;51.972;4.624;2022-09-21T03:17:22;4.2;;;2.3;;
52342;SDS011;38277;51.972;4.624;2022-09-21T03:21:18;3.6;;;2.1;;
52342;SDS011;38277;51.972;4.624;2022-09-21T03:26:00;4.7;;;2.0;;
52342;SDS011;38277;51.972;4.624;2022-09-21T03:30:33;3.6;;;2.2;;
52342;SDS011;38277;51.972;4.624;2022-09-21T03:35:12;4.1;;;2.2;;
52342;SDS011;38277;51.972;4.624;2022-09-21T03:39:20;3.7;;;2.0;;
52342;SDS011;38277;51.972;4.624;2022-09-21T03:43:53;5.1;;;2.1;;
52342;SDS011;38277;51.972;4.624;2022-09-21T03:48:37;5.3;;;2.3;;
52342;SDS011;38277;51.972;4.624;2022-09-21T03:52:44;5.0;;;2.6;;
52342;SDS011;38277;51.972;4.624;2022-09-21T04:01:44;4.6;;;2.7;;
52342;SDS011;38277;51.972;4.624;2022-09-21T04:06:41;4.5;;;2.2;;
52342;SDS011;38277;51.972;4.624;2022-09-21T04:10:55;4.4;;;2.1;;
52342;SDS011;38277;51.972;4.624;2022-09-21T04:19:47;3.7;;;2.2;;
52342;SDS011;38277;51.972;4.624;2022-09-21T04:24:22;3.8;;;2.2;;
52342;SDS011;38277;51.972;4.624;2022-09-21T04:33:23;6.9;;;3.4;;
52342;SDS011;38277;51.972;4.624;2022-09-21T04:37:57;9.4;;;3.4;;
52342;SDS011;38277;51.972;4.624;2022-09-21T04:42:31;7.6;;;3.6;;
52342;SDS011;38277;51.972;4.624;2022-09-21T04:46:49;10.2;;;3.9;;
52342;SDS011;38277;51.972;4.624;2022-09-21T04:51:39;8.6;;;4.0;;
52342;SDS011;38277;51.972;4.624;2022-09-21T04:55:50;5.5;;;2.8;;
52342;SDS011;38277;51.972;4.624;2022-09-21T05:00:28;5.8;;;2.9;;
52342;SDS011;38277;51.972;4.624;2022-09-21T05:04:51;6.3;;;2.9;;
52342;SDS011;38277;51.972;4.624;2022-09-21T05:14:05;6.4;;;3.1;;
52342;SDS011;38277;51.972;4.624;2022-09-21T05:18:43;7.9;;;3.3;;
52342;SDS011;38277;51.972;4.624;2022-09-21T05:23:12;7.5;;;2.9;;
52342;SDS011;38277;51.972;4.624;2022-09-21T05:32:22;7.5;;;3.5;;
52342;SDS011;38277;51.972;4.624;2022-09-21T05:36:48;5.6;;;3.0;;
52342;SDS011;38277;51.972;4.624;2022-09-21T05:40:53;7.0;;;2.8;;
52342;SDS011;38277;51.972;4.624;2022-09-21T05:49:58;6.7;;;3.4;;
52342;SDS011;38277;51.972;4.624;2022-09-21T05:54:58;8.8;;;3.2;;
52342;SDS011;38277;51.972;4.624;2022-09-21T05:59:24;9.0;;;3.7;;
52342;SDS011;38277;51.972;4.624;2022-09-21T06:08:05;9.2;;;4.0;;
52342;SDS011;38277;51.972;4.624;2022-09-21T06:12:20;9.1;;;4.1;;
52342;SDS011;38277;51.972;4.624;2022-09-21T06:16:47;8.1;;;4.1;;
52342;SDS011;38277;51.972;4.624;2022-09-21T06:21:30;6.7;;;3.3;;
52342;SDS011;38277;51.972;4.624;2022-09-21T06:25:50;9.4;;;5.0;;
52342;SDS011;38277;51.972;4.624;2022-09-21T06:30:15;8.5;;;3.9;;
52342;SDS011;38277;51.972;4.624;2022-09-21T06:34:57;9.4;;;3.7;;
52342;SDS011;38277;51.972;4.624;2022-09-21T06:39:36;7.4;;;3.5;;
52342;SDS011;38277;51.972;4.624;2022-09-21T06:44:07;6.7;;;3.3;;
52342;SDS011;38277;51.972;4.624;2022-09-21T06:48:35;6.9;;;3.2;;
52342;SDS011;38277;51.972;4.624;2022-09-21T06:53:09;8.6;;;3.4;;
52342;SDS011;38277;51.972;4.624;2022-09-21T07:02:12;8.1;;;3.7;;
52342;SDS011;38277;51.972;4.624;2022-09-21T07:06:40;7.8;;;4.1;;
52342;SDS011;38277;51.972;4.624;2022-09-21T07:10:52;8.4;;;3.9;;
52342;SDS011;38277;51.972;4.624;2022-09-21T07:15:26;8.1;;;3.3;;
52342;SDS011;38277;51.972;4.624;2022-09-21T07:19:51;3.9;;;2.7;;
52342;SDS011;38277;51.972;4.624;2022-09-21T07:24:25;3.8;;;2.6;;
52342;SDS011;38277;51.972;4.624;2022-09-21T07:29:10;6.4;;;3.1;;
52342;SDS011;38277;51.972;4.624;2022-09-21T07:37:50;7.8;;;3.6;;
52342;SDS011;38277;51.972;4.624;2022-09-21T07:42:32;5.3;;;2.8;;
52342;SDS011;38277;51.972;4.624;2022-09-21T07:47:12;4.2;;;2.4;;
52342;SDS011;38277;51.972;4.624;2022-09-21T07:51:33;4.6;;;2.4;;
52342;SDS011;38277;51.972;4.624;2022-09-21T07:56:10;3.8;;;2.2;;
52342;SDS011;38277;51.972;4.624;2022-09-21T08:00:39;4.8;;;2.3;;
52342;SDS011;38277;51.972;4.624;2022-09-21T08:04:46;7.7;;;2.6;;
52342;SDS011;38277;51.972;4.624;2022-09-21T08:09:31;5.4;;;2.3;;
52342;SDS011;38277;51.972;4.624;2022-09-21T08:14:05;8.0;;;2.1;;
52342;SDS011;38277;51.972;4.624;2022-09-21T08:18:39;4.2;;;1.6;;
52342;SDS011;38277;51.972;4.624;2022-09-21T08:22:49;7.0;;;1.8;;
52342;SDS011;38277;51.972;4.624;2022-09-21T08:27:16;4.3;;;1.7;;
52342;SDS011;38277;51.972;4.624;2022-09-21T08:32:03;5.5;;;1.7;;
52342;SDS011;38277;51.972;4.624;2022-09-21T08:36:38;6.3;;;1.7;;
52342;SDS011;38277;51.972;4.624;2022-09-21T08:40:47;5.8;;;2.2;;
52342;SDS011;38277;51.972;4.624;2022-09-21T08:45:25;6.4;;;2.0;;
52342;SDS011;38277;51.972;4.624;2022-09-21T08:49:55;4.2;;;1.7;;
52342;SDS011;38277;51.972;4.624;2022-09-21T08:54:37;2.0;;;1.1;;
52342;SDS011;38277;51.972;4.624;2022-09-21T08:58:53;3.0;;;1.3;;
52342;SDS011;38277;51.972;4.624;2022-09-21T09:04:54;4.5;;;1.8;;
52342;SDS011;38277;51.972;4.624;2022-09-21T09:09:12;4.3;;;1.7;;
52342;SDS011;38277;51.972;4.624;2022-09-21T09:18:45;5.8;;;1.6;;
52342;SDS011;38277;51.972;4.624;2022-09-21T09:21:37;6.2;;;1.4;;
52342;SDS011;38277;51.972;4.624;2022-09-21T09:26:01;8.2;;;1.8;;
52342;SDS011;38277;51.972;4.624;2022-09-21T09:30:28;4.5;;;1.1;;
52342;SDS011;38277;51.972;4.624;2022-09-21T09:35:24;5.5;;;1.3;;
52342;SDS011;38277;51.972;4.624;2022-09-21T09:39:15;2.3;;;1.4;;
52342;SDS011;38277;51.972;4.624;2022-09-21T09:44:43;4.3;;;1.2;;
52342;SDS011;38277;51.972;4.624;2022-09-21T09:53:01;5.0;;;1.6;;
52342;SDS011;38277;51.972;4.624;2022-09-21T09:57:28;5.4;;;1.2;;
52342;SDS011;38277;51.972;4.624;2022-09-21T10:02:03;6.4;;;1.9;;
52342;SDS011;38277;51.972;4.624;2022-09-21T10:06:15;7.1;;;2.3;;
52342;SDS011;38277;51.972;4.624;2022-09-21T10:11:06;5.7;;;1.9;;
52342;SDS011;38277;51.972;4.624;2022-09-21T10:15:22;4.5;;;1.5;;
52342;SDS011;38277;51.972;4.624;2022-09-21T10:19:59;3.7;;;1.5;;
52342;SDS011;38277;51.972;4.624;2022-09-21T10:28:56;2.8;;;1.5;;
52342;SDS011;38277;51.972;4.624;2022-09-21T10:33:20;3.9;;;1.5;;
52342;SDS011;38277;51.972;4.624;2022-09-21T10:37:45;5.3;;;1.7;;
52342;SDS011;38277;51.972;4.624;2022-09-21T10:42:37;3.7;;;1.5;;
52342;SDS011;38277;51.972;4.624;2022-09-21T10:47:14;4.0;;;1.6;;
52342;SDS011;38277;51.972;4.624;2022-09-21T10:51:25;2.8;;;1.7;;
52342;SDS011;38277;51.972;4.624;2022-09-21T10:55:56;2.5;;;1.1;;
52342;SDS011;38277;51.972;4.624;2022-09-21T11:05:08;3.1;;;1.1;;
52342;SDS011;38277;51.972;4.624;2022-09-21T11:09:47;3.8;;;1.2;;
52342;SDS011;38277;51.972;4.624;2022-09-21T11:13:52;4.3;;;1.0;;
52342;SDS011;38277;51.972;4.624;2022-09-21T11:18:50;6.0;;;1.2;;
52342;SDS011;38277;51.972;4.624;2022-09-21T11:22:54;3.8;;;1.3;;
52342;SDS011;38277;51.972;4.624;2022-09-21T11:27:41;4.0;;;1.3;;
52342;SDS011;38277;51.972;4.624;2022-09-21T11:32:32;4.1;;;1.1;;
52342;SDS011;38277;51.972;4.624;2022-09-21T11:42:47;2.7;;;1.0;;
52342;SDS011;38277;51.972;4.624;2022-09-21T11:46:39;1.8;;;0.9;;
52342;SDS011;38277;51.972;4.624;2022-09-21T11:51:28;3.3;;;1.0;;
52342;SDS011;38277;51.972;4.624;2022-09-21T12:00:20;1.5;;;0.7;;
52342;SDS011;38277;51.972;4.624;2022-09-21T12:05:45;2.8;;;0.7;;
52342;SDS011;38277;51.972;4.624;2022-09-21T12:10:38;1.4;;;0.8;;
52342;SDS011;38277;51.972;4.624;2022-09-21T12:14:20;1.9;;;0.6;;
52342;SDS011;38277;51.972;4.624;2022-09-21T12:18:27;1.7;;;0.9;;
52342;SDS011;38277;51.972;4.624;2022-09-21T12:21:39;2.7;;;0.9;;
52342;SDS011;38277;51.972;4.624;2022-09-21T12:25:45;5.9;;;1.7;;
52342;SDS011;38277;51.972;4.624;2022-09-21T12:35:02;3.0;;;1.0;;
52342;SDS011;38277;51.972;4.624;2022-09-21T12:39:56;3.1;;;1.1;;
52342;SDS011;38277;51.972;4.624;2022-09-21T12:43:57;3.0;;;1.2;;
52342;SDS011;38277;51.972;4.624;2022-09-21T12:48:38;1.5;;;0.8;;
52342;SDS011;38277;51.972;4.624;2022-09-21T12:53:07;1.3;;;0.8;;
52342;SDS011;38277;51.972;4.624;2022-09-21T12:57:55;2.4;;;0.8;;
52342;SDS011;38277;51.972;4.624;2022-09-21T13:02:19;3.3;;;1.1;;
52342;SDS011;38277;51.972;4.624;2022-09-21T13:06:50;3.4;;;1.2;;
52342;SDS011;38277;51.972;4.624;2022-09-21T13:15:16;3.4;;;0.8;;
52342;SDS011;38277;51.972;4.624;2022-09-21T13:20:17;3.1;;;0.9;;
52342;SDS011;38277;51.972;4.624;2022-09-21T13:24:32;1.8;;;0.8;;
52342;SDS011;38277;51.972;4.624;2022-09-21T13:29:37;6.4;;;1.3;;
52342;SDS011;38277;51.972;4.624;2022-09-21T13:33:36;1.8;;;0.8;;
52342;SDS011;38277;51.972;4.624;2022-09-21T13:42:45;4.6;;;1.2;;
52342;SDS011;38277;51.972;4.624;2022-09-21T13:47:07;3.0;;;1.0;;
52342;SDS011;38277;51.972;4.624;2022-09-21T13:51:32;4.2;;;1.3;;
52342;SDS011;38277;51.972;4.624;2022-09-21T13:55:59;3.5;;;1.0;;
52342;SDS011;38277;51.972;4.624;2022-09-21T14:00:42;2.9;;;1.0;;
52342;SDS011;38277;51.972;4.624;2022-09-21T14:05:03;3.4;;;1.1;;
52342;SDS011;38277;51.972;4.624;2022-09-21T14:09:36;2.8;;;0.9;;
52342;SDS011;38277;51.972;4.624;2022-09-21T14:14:05;2.0;;;0.8;;
52342;SDS011;38277;51.972;4.624;2022-09-21T14:18:37;1.5;;;0.7;;
52342;SDS011;38277;51.972;4.624;2022-09-21T14:23:28;2.8;;;0.8;;
52342;SDS011;38277;51.972;4.624;2022-09-21T14:27:50;2.7;;;1.0;;
52342;SDS011;38277;51.972;4.624;2022-09-21T14:32:13;3.3;;;1.2;;
52342;SDS011;38277;51.972;4.624;2022-09-21T14:36:31;2.7;;;0.9;;
52342;SDS011;38277;51.972;4.624;2022-09-21T14:41:07;1.6;;;0.7;;
52342;SDS011;38277;51.972;4.624;2022-09-21T14:45:33;1.8;;;1.0;;
52342;SDS011;38277;51.972;4.624;2022-09-21T14:50:39;2.9;;;1.1;;
52342;SDS011;38277;51.972;4.624;2022-09-21T14:55:17;2.0;;;1.2;;
52342;SDS011;38277;51.972;4.624;2022-09-21T15:08:07;2.3;;;0.8;;
52342;SDS011;38277;51.972;4.624;2022-09-21T15:12:46;2.6;;;0.9;;
52342;SDS011;38277;51.972;4.624;2022-09-21T15:21:20;2.1;;;0.8;;
52342;SDS011;38277;51.972;4.624;2022-09-21T15:30:42;2.6;;;0.8;;
52342;SDS011;38277;51.972;4.624;2022-09-21T15:34:57;1.9;;;1.0;;
52342;SDS011;38277;51.972;4.624;2022-09-21T15:44:04;1.3;;;0.5;;
52342;SDS011;38277;51.972;4.624;2022-09-21T15:48:35;1.7;;;0.9;;
52342;SDS011;38277;51.972;4.624;2022-09-21T15:53:06;2.3;;;0.9;;
52342;SDS011;38277;51.972;4.624;2022-09-21T15:57:42;2.5;;;0.8;;
52342;SDS011;38277;51.972;4.624;2022-09-21T16:01:44;3.4;;;1.3;;
52342;SDS011;38277;51.972;4.624;2022-09-21T16:06:35;2.6;;;0.8;;
52342;SDS011;38277;51.972;4.624;2022-09-21T16:11:18;3.7;;;1.0;;
52342;SDS011;38277;51.972;4.624;2022-09-21T16:15:31;3.2;;;1.1;;
52342;SDS011;38277;51.972;4.624;2022-09-21T16:20:16;3.0;;;0.9;;
52342;SDS011;38277;51.972;4.624;2022-09-21T16:24:30;3.7;;;0.9;;
52342;SDS011;38277;51.972;4.624;2022-09-21T16:29:24;2.4;;;1.1;;
52342;SDS011;38277;51.972;4.624;2022-09-21T16:33:41;2.9;;;0.9;;
52342;SDS011;38277;51.972;4.624;2022-09-21T16:38:16;3.0;;;1.1;;
52342;SDS011;38277;51.972;4.624;2022-09-21T16:42:14;1.6;;;0.8;;
52342;SDS011;38277;51.972;4.624;2022-09-21T16:47:12;2.2;;;0.8;;
52342;SDS011;38277;51.972;4.624;2022-09-21T16:51:14;4.4;;;1.3;;
52342;SDS011;38277;51.972;4.624;2022-09-21T16:56:03;5.0;;;1.1;;
52342;SDS011;38277;51.972;4.624;2022-09-21T17:00:29;1.6;;;0.8;;
52342;SDS011;38277;51.972;4.624;2022-09-21T17:04:51;3.6;;;1.3;;
52342;SDS011;38277;51.972;4.624;2022-09-21T17:09:23;2.1;;;0.9;;
52342;SDS011;38277;51.972;4.624;2022-09-21T17:13:59;1.9;;;1.0;;
52342;SDS011;38277;51.972;4.624;2022-09-21T17:18:21;3.9;;;1.2;;
52342;SDS011;38277;51.972;4.624;2022-09-21T17:23:10;4.6;;;0.9;;
52342;SDS011;38277;51.972;4.624;2022-09-21T17:27:24;3.2;;;1.1;;
52342;SDS011;38277;51.972;4.624;2022-09-21T17:31:54;1.4;;;0.8;;
52342;SDS011;38277;51.972;4.624;2022-09-21T17:36:44;2.7;;;1.1;;
52342;SDS011;38277;51.972;4.624;2022-09-21T17:40:48;2.3;;;1.1;;
52342;SDS011;38277;51.972;4.624;2022-09-21T17:45:43;3.0;;;1.1;;
52342;SDS011;38277;51.972;4.624;2022-09-21T17:49:56;0.9;;;0.7;;
52342;SDS011;38277;51.972;4.624;2022-09-21T17:54:36;2.2;;;0.9;;
52342;SDS011;38277;51.972;4.624;2022-09-21T17:59:22;1.9;;;0.9;;
52342;SDS011;38277;51.972;4.624;2022-09-21T18:03:26;4.3;;;1.4;;
52342;SDS011;38277;51.972;4.624;2022-09-21T18:08:14;2.3;;;1.4;;
52342;SDS011;38277;51.972;4.624;2022-09-21T18:12:44;3.7;;;1.5;;
52342;SDS011;38277;51.972;4.624;2022-09-21T18:17:30;2.7;;;1.0;;
52342;SDS011;38277;51.972;4.624;2022-09-21T18:21:23;3.4;;;1.4;;
52342;SDS011;38277;51.972;4.624;2022-09-21T18:25:59;3.1;;;1.5;;
52342;SDS011;38277;51.972;4.624;2022-09-21T18:30:22;2.8;;;1.3;;
52342;SDS011;38277;51.972;4.624;2022-09-21T18:35:34;2.7;;;1.5;;
52342;SDS011;38277;51.972;4.624;2022-09-21T18:40:06;5.6;;;1.9;;
52342;SDS011;38277;51.972;4.624;2022-09-21T18:44:13;3.7;;;1.6;;
52342;SDS011;38277;51.972;4.624;2022-09-21T18:53:21;5.3;;;1.7;;
52342;SDS011;38277;51.972;4.624;2022-09-21T18:57:20;4.4;;;1.8;;
52342;SDS011;38277;51.972;4.624;2022-09-21T19:01:50;5.8;;;2.2;;
52342;SDS011;38277;51.972;4.624;2022-09-21T19:11:25;3.3;;;1.6;;
52342;SDS011;38277;51.972;4.624;2022-09-21T19:15:56;3.6;;;1.6;;
52342;SDS011;38277;51.972;4.624;2022-09-21T19:20:29;4.3;;;2.3;;
52342;SDS011;38277;51.972;4.624;2022-09-21T19:29:01;5.8;;;1.9;;
52342;SDS011;38277;51.972;4.624;2022-09-21T19:33:29;4.5;;;1.9;;
52342;SDS011;38277;51.972;4.624;2022-09-21T19:38:06;6.6;;;2.4;;
52342;SDS011;38277;51.972;4.624;2022-09-21T19:42:33;5.6;;;2.6;;
52342;SDS011;38277;51.972;4.624;2022-09-21T19:47:03;8.5;;;3.9;;
52342;SDS011;38277;51.972;4.624;2022-09-21T19:51:50;7.3;;;3.4;;
52342;SDS011;38277;51.972;4.624;2022-09-21T19:55:44;6.3;;;2.8;;
52342;SDS011;38277;51.972;4.624;2022-09-21T20:00:41;6.6;;;3.2;;
52342;SDS011;38277;51.972;4.624;2022-09-21T20:04:57;5.3;;;2.9;;
52342;SDS011;38277;51.972;4.624;2022-09-21T20:09:37;6.6;;;2.8;;
52342;SDS011;38277;51.972;4.624;2022-09-21T20:14:01;5.5;;;2.9;;
52342;SDS011;38277;51.972;4.624;2022-09-21T20:18:43;5.9;;;2.8;;
52342;SDS011;38277;51.972;4.624;2022-09-21T20:22:48;4.5;;;2.7;;
52342;SDS011;38277;51.972;4.624;2022-09-21T20:36:35;4.6;;;2.7;;
52342;SDS011;38277;51.972;4.624;2022-09-21T20:40:46;6.2;;;3.1;;
52342;SDS011;38277;51.972;4.624;2022-09-21T20:45:21;6.1;;;2.6;;
52342;SDS011;38277;51.972;4.624;2022-09-21T20:54:38;5.5;;;2.8;;
52342;SDS011;38277;51.972;4.624;2022-09-21T20:59:00;6.6;;;3.0;;
52342;SDS011;38277;51.972;4.624;2022-09-21T21:03:35;5.4;;;2.8;;
52342;SDS011;38277;51.972;4.624;2022-09-21T21:12:42;6.5;;;3.2;;
52342;SDS011;38277;51.972;4.624;2022-09-21T21:16:49;7.4;;;3.7;;
52342;SDS011;38277;51.972;4.624;2022-09-21T21:21:14;8.8;;;4.5;;
52342;SDS011;38277;51.972;4.624;2022-09-21T21:26:08;6.1;;;3.1;;
52342;SDS011;38277;51.972;4.624;2022-09-21T21:30:30;5.2;;;2.9;;
52342;SDS011;38277;51.972;4.624;2022-09-21T21:34:59;8.3;;;3.1;;
52342;SDS011;38277;51.972;4.624;2022-09-21T21:39:34;6.3;;;3.0;;
52342;SDS011;38277;51.972;4.624;2022-09-21T21:44:11;5.5;;;2.5;;
52342;SDS011;38277;51.972;4.624;2022-09-21T21:48:35;5.8;;;2.8;;
52342;SDS011;38277;51.972;4.624;2022-09-21T21:52:56;5.0;;;2.6;;
52342;SDS011;38277;51.972;4.624;2022-09-21T21:57:24;6.2;;;2.8;;
52342;SDS011;38277;51.972;4.624;2022-09-21T22:01:51;4.3;;;2.2;;
52342;SDS011;38277;51.972;4.624;2022-09-21T22:06:36;6.2;;;2.5;;
52342;SDS011;38277;51.972;4.624;2022-09-21T22:11:05;5.3;;;2.2;;
52342;SDS011;38277;51.972;4.624;2022-09-21T22:15:20;4.0;;;2.5;;
52342;SDS011;38277;51.972;4.624;2022-09-21T22:28:59;5.4;;;2.1;;
52342;SDS011;38277;51.972;4.624;2022-09-21T22:33:33;3.7;;;2.2;;
52342;SDS011;38277;51.972;4.624;2022-09-21T22:42:23;5.9;;;2.5;;
52342;SDS011;38277;51.972;4.624;2022-09-21T22:47:13;3.3;;;2.1;;
52342;SDS011;38277;51.972;4.624;2022-09-21T22:51:35;4.8;;;2.4;;
52342;SDS011;38277;51.972;4.624;2022-09-21T22:56:07;5.3;;;2.4;;
52342;SDS011;38277;51.972;4.624;2022-09-21T23:00:37;4.8;;;2.5;;
52342;SDS011;38277;51.972;4.624;2022-09-21T23:04:43;4.0;;;2.3;;
52342;SDS011;38277;51.972;4.624;2022-09-21T23:09:17;4.6;;;2.5;;
52342;SDS011;38277;51.972;4.624;2022-09-21T23:23:03;5.5;;;2.8;;
52342;SDS011;38277;51.972;4.624;2022-09-21T23:27:26;5.5;;;3.0;;
52342;SDS011;38277;51.972;4.624;2022-09-21T23:31:56;7.2;;;2.6;;
52342;SDS011;38277;51.972;4.624;2022-09-21T23:36:15;3.8;;;2.5;;
52342;SDS011;38277;51.972;4.624;2022-09-21T23:41:09;5.6;;;2.4;;
52342;SDS011;38277;51.972;4.624;2022-09-21T23:45:16;5.8;;;2.7;;
52342;SDS011;38277;51.972;4.624;2022-09-21T23:50:17;5.5;;;2.8;;
52342;SDS011;38277;51.972;4.624;2022-09-21T23:54:27;6.6;;;2.5;;
52342;SDS011;38277;51.972;4.624;2022-09-21T23:58:57;6.4;;;2.9;;
